sensor_id;sensor_type;location;lat;lon;timestamp;P1;durP1;ratioP1;P2;durP2;ratioP2
7338;SDS011;33747;49.524;8.390;2022-10-31T00:00:15;19.65;;;8.18;;
7338;SDS011;33747;49.524;8.390;2022-10-31T00:02:41;15.60;;;7.95;;
7338;SDS011;33747;49.524;8.390;2022-10-31T00:05:06;12.98;;;7.32;;
7338;SDS011;33747;49.524;8.390;2022-10-31T00:07:32;15.85;;;7.88;;
7338;SDS011;33747;49.524;8.390;2022-10-31T00:09:57;15.13;;;7.43;;
7338;SDS011;33747;49.524;8.390;2022-10-31T00:12:22;14.77;;;8.50;;
7338;SDS011;33747;49.524;8.390;2022-10-31T00:14:48;18.25;;;8.25;;
7338;SDS011;33747;49.524;8.390;2022-10-31T00:17:13;17.58;;;7.50;;
7338;SDS011;33747;49.524;8.390;2022-10-31T00:19:39;13.80;;;7.63;;
7338;SDS011;33747;49.524;8.390;2022-10-31T00:22:04;19.90;;;8.52;;
7338;SDS011;33747;49.524;8.390;2022-10-31T00:24:29;17.90;;;9.32;;
7338;SDS011;33747;49.524;8.390;2022-10-31T00:26:55;16.65;;;7.95;;
7338;SDS011;33747;49.524;8.390;2022-10-31T00:29:20;24.63;;;9.40;;
7338;SDS011;33747;49.524;8.390;2022-10-31T00:31:45;19.88;;;8.57;;
7338;SDS011;33747;49.524;8.390;2022-10-31T00:34:11;16.98;;;9.13;;
7338;SDS011;33747;49.524;8.390;2022-10-31T00:36:36;19.98;;;10.90;;
7338;SDS011;33747;49.524;8.390;2022-10-31T00:39:02;18.30;;;8.60;;
7338;SDS011;33747;49.524;8.390;2022-10-31T00:41:27;19.45;;;8.90;;
7338;SDS011;33747;49.524;8.390;2022-10-31T00:43:53;17.35;;;9.70;;
7338;SDS011;33747;49.524;8.390;2022-10-31T00:46:19;19.33;;;11.10;;
7338;SDS011;33747;49.524;8.390;2022-10-31T00:48:44;16.33;;;8.82;;
7338;SDS011;33747;49.524;8.390;2022-10-31T00:51:10;20.88;;;10.25;;
7338;SDS011;33747;49.524;8.390;2022-10-31T00:53:35;17.70;;;9.13;;
7338;SDS011;33747;49.524;8.390;2022-10-31T00:56:00;15.27;;;8.35;;
7338;SDS011;33747;49.524;8.390;2022-10-31T00:58:26;18.95;;;8.05;;
7338;SDS011;33747;49.524;8.390;2022-10-31T01:00:51;16.70;;;8.75;;
7338;SDS011;33747;49.524;8.390;2022-10-31T01:03:29;17.98;;;8.52;;
7338;SDS011;33747;49.524;8.390;2022-10-31T01:08:26;12.10;;;7.00;;
7338;SDS011;33747;49.524;8.390;2022-10-31T01:11:02;16.98;;;7.63;;
7338;SDS011;33747;49.524;8.390;2022-10-31T01:13:35;15.80;;;8.10;;
7338;SDS011;33747;49.524;8.390;2022-10-31T01:16:00;16.88;;;8.45;;
7338;SDS011;33747;49.524;8.390;2022-10-31T01:18:27;19.80;;;8.50;;
7338;SDS011;33747;49.524;8.390;2022-10-31T01:23:28;15.95;;;7.68;;
7338;SDS011;33747;49.524;8.390;2022-10-31T01:26:07;16.83;;;7.70;;
7338;SDS011;33747;49.524;8.390;2022-10-31T01:28:38;13.45;;;7.40;;
7338;SDS011;33747;49.524;8.390;2022-10-31T01:31:05;17.27;;;9.20;;
7338;SDS011;33747;49.524;8.390;2022-10-31T01:33:32;18.23;;;9.15;;
7338;SDS011;33747;49.524;8.390;2022-10-31T01:35:58;17.88;;;9.20;;
7338;SDS011;33747;49.524;8.390;2022-10-31T01:38:23;16.55;;;8.63;;
7338;SDS011;33747;49.524;8.390;2022-10-31T01:40:49;28.30;;;9.07;;
7338;SDS011;33747;49.524;8.390;2022-10-31T01:43:15;15.18;;;7.95;;
7338;SDS011;33747;49.524;8.390;2022-10-31T01:45:41;24.42;;;9.43;;
7338;SDS011;33747;49.524;8.390;2022-10-31T01:48:16;17.58;;;9.07;;
7338;SDS011;33747;49.524;8.390;2022-10-31T01:50:43;19.77;;;9.30;;
7338;SDS011;33747;49.524;8.390;2022-10-31T01:53:10;23.05;;;9.63;;
7338;SDS011;33747;49.524;8.390;2022-10-31T01:55:38;17.42;;;9.93;;
7338;SDS011;33747;49.524;8.390;2022-10-31T01:58:12;25.00;;;9.82;;
7338;SDS011;33747;49.524;8.390;2022-10-31T02:00:41;17.33;;;9.38;;
7338;SDS011;33747;49.524;8.390;2022-10-31T02:03:09;22.13;;;9.20;;
7338;SDS011;33747;49.524;8.390;2022-10-31T02:05:35;23.85;;;9.55;;
7338;SDS011;33747;49.524;8.390;2022-10-31T02:08:04;12.88;;;8.60;;
7338;SDS011;33747;49.524;8.390;2022-10-31T02:10:37;13.25;;;9.35;;
7338;SDS011;33747;49.524;8.390;2022-10-31T02:13:04;15.98;;;8.18;;
7338;SDS011;33747;49.524;8.390;2022-10-31T02:15:30;10.80;;;7.90;;
7338;SDS011;33747;49.524;8.390;2022-10-31T02:17:57;16.30;;;9.10;;
7338;SDS011;33747;49.524;8.390;2022-10-31T02:20:23;14.13;;;8.18;;
7338;SDS011;33747;49.524;8.390;2022-10-31T02:26:49;17.45;;;8.27;;
7338;SDS011;33747;49.524;8.390;2022-10-31T02:31:33;16.23;;;8.52;;
7338;SDS011;33747;49.524;8.390;2022-10-31T02:34:15;16.80;;;8.07;;
7338;SDS011;33747;49.524;8.390;2022-10-31T02:36:52;18.10;;;8.38;;
7338;SDS011;33747;49.524;8.390;2022-10-31T02:39:36;14.73;;;7.72;;
7338;SDS011;33747;49.524;8.390;2022-10-31T02:44:57;11.57;;;7.65;;
7338;SDS011;33747;49.524;8.390;2022-10-31T02:47:29;16.70;;;7.47;;
7338;SDS011;33747;49.524;8.390;2022-10-31T02:52:38;15.23;;;8.27;;
7338;SDS011;33747;49.524;8.390;2022-10-31T02:55:11;19.05;;;7.78;;
7338;SDS011;33747;49.524;8.390;2022-10-31T02:57:59;21.33;;;7.70;;
7338;SDS011;33747;49.524;8.390;2022-10-31T03:00:25;10.82;;;7.82;;
7338;SDS011;33747;49.524;8.390;2022-10-31T03:10:57;15.77;;;6.95;;
7338;SDS011;33747;49.524;8.390;2022-10-31T03:16:09;13.32;;;6.82;;
7338;SDS011;33747;49.524;8.390;2022-10-31T03:18:40;12.27;;;7.43;;
7338;SDS011;33747;49.524;8.390;2022-10-31T03:21:22;12.52;;;6.97;;
7338;SDS011;33747;49.524;8.390;2022-10-31T03:23:52;14.10;;;7.13;;
7338;SDS011;33747;49.524;8.390;2022-10-31T03:26:19;17.15;;;7.78;;
7338;SDS011;33747;49.524;8.390;2022-10-31T03:28:48;20.33;;;7.65;;
7338;SDS011;33747;49.524;8.390;2022-10-31T03:31:17;16.42;;;7.63;;
7338;SDS011;33747;49.524;8.390;2022-10-31T03:33:43;14.27;;;8.18;;
7338;SDS011;33747;49.524;8.390;2022-10-31T03:36:10;9.32;;;6.72;;
7338;SDS011;33747;49.524;8.390;2022-10-31T03:38:37;16.75;;;7.80;;
7338;SDS011;33747;49.524;8.390;2022-10-31T03:41:03;9.90;;;7.25;;
7338;SDS011;33747;49.524;8.390;2022-10-31T03:43:32;13.93;;;6.95;;
7338;SDS011;33747;49.524;8.390;2022-10-31T03:46:01;15.30;;;7.00;;
7338;SDS011;33747;49.524;8.390;2022-10-31T03:48:26;10.70;;;6.53;;
7338;SDS011;33747;49.524;8.390;2022-10-31T03:53:34;10.50;;;6.88;;
7338;SDS011;33747;49.524;8.390;2022-10-31T03:56:23;16.83;;;8.05;;
7338;SDS011;33747;49.524;8.390;2022-10-31T03:59:05;12.93;;;8.00;;
7338;SDS011;33747;49.524;8.390;2022-10-31T04:01:34;18.05;;;7.75;;
7338;SDS011;33747;49.524;8.390;2022-10-31T04:04:03;14.65;;;7.47;;
7338;SDS011;33747;49.524;8.390;2022-10-31T04:06:29;10.27;;;6.50;;
7338;SDS011;33747;49.524;8.390;2022-10-31T04:08:56;15.50;;;7.93;;
7338;SDS011;33747;49.524;8.390;2022-10-31T04:11:25;14.00;;;7.85;;
7338;SDS011;33747;49.524;8.390;2022-10-31T04:13:56;14.65;;;7.65;;
7338;SDS011;33747;49.524;8.390;2022-10-31T04:16:22;16.63;;;8.60;;
7338;SDS011;33747;49.524;8.390;2022-10-31T04:18:49;16.30;;;7.75;;
7338;SDS011;33747;49.524;8.390;2022-10-31T04:21:14;20.70;;;8.25;;
7338;SDS011;33747;49.524;8.390;2022-10-31T04:23:39;20.10;;;9.02;;
7338;SDS011;33747;49.524;8.390;2022-10-31T04:26:05;12.30;;;7.43;;
7338;SDS011;33747;49.524;8.390;2022-10-31T04:28:30;13.15;;;7.88;;
7338;SDS011;33747;49.524;8.390;2022-10-31T04:30:57;24.30;;;8.82;;
7338;SDS011;33747;49.524;8.390;2022-10-31T04:33:23;15.15;;;8.77;;
7338;SDS011;33747;49.524;8.390;2022-10-31T04:35:48;21.95;;;8.00;;
7338;SDS011;33747;49.524;8.390;2022-10-31T04:38:13;20.33;;;8.20;;
7338;SDS011;33747;49.524;8.390;2022-10-31T04:40:39;15.65;;;8.07;;
7338;SDS011;33747;49.524;8.390;2022-10-31T04:43:04;16.60;;;7.10;;
7338;SDS011;33747;49.524;8.390;2022-10-31T04:45:30;12.40;;;6.85;;
7338;SDS011;33747;49.524;8.390;2022-10-31T04:47:55;11.52;;;6.35;;
7338;SDS011;33747;49.524;8.390;2022-10-31T04:50:20;24.75;;;7.93;;
7338;SDS011;33747;49.524;8.390;2022-10-31T04:52:46;15.85;;;8.18;;
7338;SDS011;33747;49.524;8.390;2022-10-31T04:55:11;14.93;;;7.72;;
7338;SDS011;33747;49.524;8.390;2022-10-31T04:57:55;11.95;;;6.72;;
7338;SDS011;33747;49.524;8.390;2022-10-31T05:00:21;17.42;;;7.43;;
7338;SDS011;33747;49.524;8.390;2022-10-31T05:02:47;17.85;;;7.70;;
7338;SDS011;33747;49.524;8.390;2022-10-31T05:05:14;25.25;;;7.43;;
7338;SDS011;33747;49.524;8.390;2022-10-31T05:07:41;14.20;;;8.05;;
7338;SDS011;33747;49.524;8.390;2022-10-31T05:10:07;15.93;;;8.00;;
7338;SDS011;33747;49.524;8.390;2022-10-31T05:12:34;18.83;;;8.27;;
7338;SDS011;33747;49.524;8.390;2022-10-31T05:15:00;12.35;;;7.13;;
7338;SDS011;33747;49.524;8.390;2022-10-31T05:17:25;20.25;;;7.60;;
7338;SDS011;33747;49.524;8.390;2022-10-31T05:19:50;15.68;;;7.25;;
7338;SDS011;33747;49.524;8.390;2022-10-31T05:22:16;21.90;;;6.53;;
7338;SDS011;33747;49.524;8.390;2022-10-31T05:24:41;17.67;;;7.15;;
7338;SDS011;33747;49.524;8.390;2022-10-31T05:27:07;9.70;;;7.05;;
7338;SDS011;33747;49.524;8.390;2022-10-31T05:29:32;14.82;;;8.13;;
7338;SDS011;33747;49.524;8.390;2022-10-31T05:31:58;21.20;;;7.30;;
7338;SDS011;33747;49.524;8.390;2022-10-31T05:34:24;16.65;;;7.88;;
7338;SDS011;33747;49.524;8.390;2022-10-31T05:36:49;13.98;;;7.22;;
7338;SDS011;33747;49.524;8.390;2022-10-31T05:39:14;19.10;;;7.82;;
7338;SDS011;33747;49.524;8.390;2022-10-31T05:41:40;18.23;;;9.20;;
7338;SDS011;33747;49.524;8.390;2022-10-31T05:44:05;21.35;;;7.97;;
7338;SDS011;33747;49.524;8.390;2022-10-31T05:46:30;14.98;;;8.13;;
7338;SDS011;33747;49.524;8.390;2022-10-31T05:48:56;11.43;;;7.00;;
7338;SDS011;33747;49.524;8.390;2022-10-31T05:51:21;16.45;;;8.02;;
7338;SDS011;33747;49.524;8.390;2022-10-31T05:53:47;15.73;;;7.88;;
7338;SDS011;33747;49.524;8.390;2022-10-31T05:56:12;17.35;;;8.02;;
7338;SDS011;33747;49.524;8.390;2022-10-31T05:58:38;19.48;;;9.77;;
7338;SDS011;33747;49.524;8.390;2022-10-31T06:01:03;19.90;;;8.50;;
7338;SDS011;33747;49.524;8.390;2022-10-31T06:03:28;15.55;;;9.43;;
7338;SDS011;33747;49.524;8.390;2022-10-31T06:05:54;18.85;;;8.77;;
7338;SDS011;33747;49.524;8.390;2022-10-31T06:08:19;18.75;;;9.02;;
7338;SDS011;33747;49.524;8.390;2022-10-31T06:10:44;13.38;;;8.00;;
7338;SDS011;33747;49.524;8.390;2022-10-31T06:13:10;26.83;;;9.23;;
7338;SDS011;33747;49.524;8.390;2022-10-31T06:15:35;40.67;;;12.40;;
7338;SDS011;33747;49.524;8.390;2022-10-31T06:18:01;48.40;;;12.95;;
7338;SDS011;33747;49.524;8.390;2022-10-31T06:20:28;59.45;;;13.25;;
7338;SDS011;33747;49.524;8.390;2022-10-31T06:22:53;65.03;;;14.57;;
7338;SDS011;33747;49.524;8.390;2022-10-31T06:25:18;59.95;;;14.40;;
7338;SDS011;33747;49.524;8.390;2022-10-31T06:27:44;36.83;;;14.05;;
7338;SDS011;33747;49.524;8.390;2022-10-31T06:30:09;37.47;;;14.35;;
7338;SDS011;33747;49.524;8.390;2022-10-31T06:32:35;39.38;;;14.05;;
7338;SDS011;33747;49.524;8.390;2022-10-31T06:35:00;31.98;;;12.65;;
7338;SDS011;33747;49.524;8.390;2022-10-31T06:37:26;19.95;;;11.82;;
7338;SDS011;33747;49.524;8.390;2022-10-31T06:39:51;29.80;;;11.85;;
7338;SDS011;33747;49.524;8.390;2022-10-31T06:42:16;30.40;;;12.95;;
7338;SDS011;33747;49.524;8.390;2022-10-31T06:44:42;25.45;;;12.65;;
7338;SDS011;33747;49.524;8.390;2022-10-31T06:47:07;22.67;;;11.75;;
7338;SDS011;33747;49.524;8.390;2022-10-31T06:49:32;23.77;;;11.63;;
7338;SDS011;33747;49.524;8.390;2022-10-31T06:51:58;17.55;;;10.90;;
7338;SDS011;33747;49.524;8.390;2022-10-31T06:54:23;21.00;;;10.80;;
7338;SDS011;33747;49.524;8.390;2022-10-31T06:56:49;14.23;;;9.90;;
7338;SDS011;33747;49.524;8.390;2022-10-31T06:59:14;20.38;;;10.20;;
7338;SDS011;33747;49.524;8.390;2022-10-31T07:01:40;25.17;;;10.35;;
7338;SDS011;33747;49.524;8.390;2022-10-31T07:04:05;22.52;;;10.23;;
7338;SDS011;33747;49.524;8.390;2022-10-31T07:06:31;20.02;;;10.68;;
7338;SDS011;33747;49.524;8.390;2022-10-31T07:08:56;22.35;;;10.43;;
7338;SDS011;33747;49.524;8.390;2022-10-31T07:11:21;23.30;;;10.63;;
7338;SDS011;33747;49.524;8.390;2022-10-31T07:13:47;23.10;;;10.93;;
7338;SDS011;33747;49.524;8.390;2022-10-31T07:16:12;20.65;;;12.38;;
7338;SDS011;33747;49.524;8.390;2022-10-31T07:18:38;20.13;;;12.07;;
7338;SDS011;33747;49.524;8.390;2022-10-31T07:21:04;26.83;;;13.65;;
7338;SDS011;33747;49.524;8.390;2022-10-31T07:23:29;21.92;;;11.70;;
7338;SDS011;33747;49.524;8.390;2022-10-31T07:25:55;24.88;;;13.57;;
7338;SDS011;33747;49.524;8.390;2022-10-31T07:28:21;35.38;;;14.93;;
7338;SDS011;33747;49.524;8.390;2022-10-31T07:30:53;25.67;;;12.95;;
7338;SDS011;33747;49.524;8.390;2022-10-31T07:33:20;19.42;;;11.50;;
7338;SDS011;33747;49.524;8.390;2022-10-31T07:35:45;22.90;;;12.07;;
7338;SDS011;33747;49.524;8.390;2022-10-31T07:38:11;21.63;;;12.18;;
7338;SDS011;33747;49.524;8.390;2022-10-31T07:40:37;23.50;;;11.30;;
7338;SDS011;33747;49.524;8.390;2022-10-31T07:43:03;28.23;;;12.05;;
7338;SDS011;33747;49.524;8.390;2022-10-31T07:45:28;25.95;;;13.02;;
7338;SDS011;33747;49.524;8.390;2022-10-31T07:47:54;25.90;;;11.98;;
7338;SDS011;33747;49.524;8.390;2022-10-31T07:50:20;22.55;;;10.95;;
7338;SDS011;33747;49.524;8.390;2022-10-31T07:53:00;25.15;;;11.18;;
7338;SDS011;33747;49.524;8.390;2022-10-31T07:55:36;27.52;;;11.82;;
7338;SDS011;33747;49.524;8.390;2022-10-31T07:58:05;16.35;;;11.23;;
7338;SDS011;33747;49.524;8.390;2022-10-31T08:00:32;21.77;;;10.93;;
7338;SDS011;33747;49.524;8.390;2022-10-31T08:03:03;27.90;;;10.85;;
7338;SDS011;33747;49.524;8.390;2022-10-31T08:05:30;21.63;;;10.10;;
7338;SDS011;33747;49.524;8.390;2022-10-31T08:07:56;19.63;;;11.45;;
7338;SDS011;33747;49.524;8.390;2022-10-31T08:10:23;16.23;;;9.98;;
7338;SDS011;33747;49.524;8.390;2022-10-31T08:12:54;29.98;;;11.50;;
7338;SDS011;33747;49.524;8.390;2022-10-31T08:15:20;22.23;;;11.25;;
7338;SDS011;33747;49.524;8.390;2022-10-31T08:17:46;20.73;;;10.75;;
7338;SDS011;33747;49.524;8.390;2022-10-31T08:20:11;32.55;;;12.05;;
7338;SDS011;33747;49.524;8.390;2022-10-31T08:22:36;20.40;;;11.52;;
7338;SDS011;33747;49.524;8.390;2022-10-31T08:25:02;24.88;;;10.82;;
7338;SDS011;33747;49.524;8.390;2022-10-31T08:27:27;32.03;;;11.32;;
7338;SDS011;33747;49.524;8.390;2022-10-31T08:29:52;24.95;;;10.70;;
7338;SDS011;33747;49.524;8.390;2022-10-31T08:32:18;20.45;;;9.85;;
7338;SDS011;33747;49.524;8.390;2022-10-31T08:34:43;19.90;;;10.00;;
7338;SDS011;33747;49.524;8.390;2022-10-31T08:37:08;18.95;;;9.38;;
7338;SDS011;33747;49.524;8.390;2022-10-31T08:39:34;19.20;;;8.57;;
7338;SDS011;33747;49.524;8.390;2022-10-31T08:41:59;15.35;;;7.78;;
7338;SDS011;33747;49.524;8.390;2022-10-31T08:44:25;25.40;;;9.45;;
7338;SDS011;33747;49.524;8.390;2022-10-31T08:46:50;18.77;;;7.82;;
7338;SDS011;33747;49.524;8.390;2022-10-31T08:49:15;16.83;;;8.35;;
7338;SDS011;33747;49.524;8.390;2022-10-31T08:51:41;15.52;;;7.78;;
7338;SDS011;33747;49.524;8.390;2022-10-31T08:54:06;17.08;;;9.05;;
7338;SDS011;33747;49.524;8.390;2022-10-31T08:56:31;12.40;;;7.90;;
7338;SDS011;33747;49.524;8.390;2022-10-31T08:58:57;14.50;;;9.05;;
7338;SDS011;33747;49.524;8.390;2022-10-31T09:01:22;12.13;;;7.80;;
7338;SDS011;33747;49.524;8.390;2022-10-31T09:03:48;17.23;;;8.43;;
7338;SDS011;33747;49.524;8.390;2022-10-31T09:06:13;15.27;;;8.52;;
7338;SDS011;33747;49.524;8.390;2022-10-31T09:08:38;17.95;;;7.72;;
7338;SDS011;33747;49.524;8.390;2022-10-31T09:11:04;21.08;;;9.05;;
7338;SDS011;33747;49.524;8.390;2022-10-31T09:13:31;28.83;;;9.88;;
7338;SDS011;33747;49.524;8.390;2022-10-31T09:15:57;29.98;;;9.63;;
7338;SDS011;33747;49.524;8.390;2022-10-31T09:18:23;30.05;;;10.02;;
7338;SDS011;33747;49.524;8.390;2022-10-31T09:20:49;24.80;;;9.80;;
7338;SDS011;33747;49.524;8.390;2022-10-31T09:23:19;19.98;;;9.00;;
7338;SDS011;33747;49.524;8.390;2022-10-31T09:25:45;28.75;;;9.65;;
7338;SDS011;33747;49.524;8.390;2022-10-31T09:28:13;16.50;;;8.50;;
7338;SDS011;33747;49.524;8.390;2022-10-31T09:30:40;16.73;;;8.32;;
7338;SDS011;33747;49.524;8.390;2022-10-31T09:33:07;14.82;;;8.20;;
7338;SDS011;33747;49.524;8.390;2022-10-31T09:35:34;18.92;;;9.52;;
7338;SDS011;33747;49.524;8.390;2022-10-31T09:38:10;23.33;;;9.77;;
7338;SDS011;33747;49.524;8.390;2022-10-31T09:40:37;16.95;;;9.18;;
7338;SDS011;33747;49.524;8.390;2022-10-31T09:48:37;15.60;;;9.90;;
7338;SDS011;33747;49.524;8.390;2022-10-31T09:51:30;20.55;;;9.88;;
7338;SDS011;33747;49.524;8.390;2022-10-31T09:56:30;19.20;;;10.00;;
7338;SDS011;33747;49.524;8.390;2022-10-31T09:58:57;19.15;;;9.93;;
7338;SDS011;33747;49.524;8.390;2022-10-31T10:01:28;15.65;;;9.30;;
7338;SDS011;33747;49.524;8.390;2022-10-31T10:06:55;24.10;;;10.60;;
7338;SDS011;33747;49.524;8.390;2022-10-31T10:09:21;20.85;;;10.13;;
7338;SDS011;33747;49.524;8.390;2022-10-31T10:12:06;18.42;;;10.75;;
7338;SDS011;33747;49.524;8.390;2022-10-31T10:17:38;24.02;;;9.85;;
7338;SDS011;33747;49.524;8.390;2022-10-31T10:20:13;19.60;;;10.13;;
7338;SDS011;33747;49.524;8.390;2022-10-31T10:25:22;22.10;;;10.95;;
7338;SDS011;33747;49.524;8.390;2022-10-31T10:33:05;22.92;;;10.23;;
7338;SDS011;33747;49.524;8.390;2022-10-31T10:35:38;21.17;;;10.20;;
7338;SDS011;33747;49.524;8.390;2022-10-31T10:40:37;23.30;;;10.73;;
7338;SDS011;33747;49.524;8.390;2022-10-31T10:46:12;24.60;;;10.88;;
7338;SDS011;33747;49.524;8.390;2022-10-31T10:52:50;32.25;;;11.40;;
7338;SDS011;33747;49.524;8.390;2022-10-31T10:55:10;33.72;;;12.20;;
7338;SDS011;33747;49.524;8.390;2022-10-31T11:02:51;29.63;;;10.90;;
7338;SDS011;33747;49.524;8.390;2022-10-31T11:05:24;42.40;;;12.18;;
7338;SDS011;33747;49.524;8.390;2022-10-31T11:07:53;23.17;;;10.93;;
7338;SDS011;33747;49.524;8.390;2022-10-31T11:10:18;20.33;;;10.45;;
7338;SDS011;33747;49.524;8.390;2022-10-31T11:12:45;20.25;;;9.70;;
7338;SDS011;33747;49.524;8.390;2022-10-31T11:15:22;35.88;;;11.68;;
7338;SDS011;33747;49.524;8.390;2022-10-31T11:17:50;14.73;;;10.38;;
7338;SDS011;33747;49.524;8.390;2022-10-31T11:22:42;18.95;;;10.77;;
7338;SDS011;33747;49.524;8.390;2022-10-31T11:27:43;28.90;;;11.43;;
7338;SDS011;33747;49.524;8.390;2022-10-31T11:30:09;29.42;;;12.15;;
7338;SDS011;33747;49.524;8.390;2022-10-31T11:32:37;25.88;;;11.10;;
7338;SDS011;33747;49.524;8.390;2022-10-31T11:35:10;24.90;;;11.38;;
7338;SDS011;33747;49.524;8.390;2022-10-31T11:37:40;22.85;;;11.50;;
7338;SDS011;33747;49.524;8.390;2022-10-31T11:40:14;21.38;;;10.55;;
7338;SDS011;33747;49.524;8.390;2022-10-31T11:42:41;22.98;;;10.85;;
7338;SDS011;33747;49.524;8.390;2022-10-31T11:45:13;26.27;;;11.38;;
7338;SDS011;33747;49.524;8.390;2022-10-31T11:47:58;23.67;;;11.20;;
7338;SDS011;33747;49.524;8.390;2022-10-31T11:50:33;28.20;;;12.88;;
7338;SDS011;33747;49.524;8.390;2022-10-31T11:53:01;20.65;;;11.40;;
7338;SDS011;33747;49.524;8.390;2022-10-31T11:57:58;26.85;;;12.05;;
7338;SDS011;33747;49.524;8.390;2022-10-31T12:00:24;25.75;;;12.15;;
7338;SDS011;33747;49.524;8.390;2022-10-31T12:05:41;23.25;;;11.30;;
7338;SDS011;33747;49.524;8.390;2022-10-31T12:08:09;25.40;;;11.57;;
7338;SDS011;33747;49.524;8.390;2022-10-31T12:10:39;21.17;;;11.70;;
7338;SDS011;33747;49.524;8.390;2022-10-31T12:16:06;27.00;;;11.90;;
7338;SDS011;33747;49.524;8.390;2022-10-31T12:21:21;28.58;;;12.90;;
7338;SDS011;33747;49.524;8.390;2022-10-31T12:24:04;20.17;;;12.00;;
7338;SDS011;33747;49.524;8.390;2022-10-31T12:37:24;19.65;;;11.88;;
7338;SDS011;33747;49.524;8.390;2022-10-31T12:43:46;27.95;;;10.70;;
7338;SDS011;33747;49.524;8.390;2022-10-31T12:46:26;20.42;;;12.10;;
7338;SDS011;33747;49.524;8.390;2022-10-31T12:52:02;19.63;;;11.00;;
7338;SDS011;33747;49.524;8.390;2022-10-31T12:54:45;31.55;;;10.93;;
7338;SDS011;33747;49.524;8.390;2022-10-31T12:59:57;29.80;;;12.00;;
7338;SDS011;33747;49.524;8.390;2022-10-31T13:02:33;28.98;;;12.30;;
7338;SDS011;33747;49.524;8.390;2022-10-31T13:05:14;25.30;;;11.43;;
7338;SDS011;33747;49.524;8.390;2022-10-31T13:08:05;27.50;;;11.73;;
7338;SDS011;33747;49.524;8.390;2022-10-31T13:10:42;30.23;;;11.15;;
7338;SDS011;33747;49.524;8.390;2022-10-31T13:13:15;33.95;;;11.93;;
7338;SDS011;33747;49.524;8.390;2022-10-31T13:15:55;38.17;;;12.48;;
7338;SDS011;33747;49.524;8.390;2022-10-31T13:18:28;29.20;;;12.85;;
7338;SDS011;33747;49.524;8.390;2022-10-31T13:20:57;31.65;;;12.05;;
7338;SDS011;33747;49.524;8.390;2022-10-31T13:23:33;22.70;;;12.73;;
7338;SDS011;33747;49.524;8.390;2022-10-31T13:26:01;21.75;;;11.75;;
7338;SDS011;33747;49.524;8.390;2022-10-31T13:28:40;18.38;;;12.40;;
7338;SDS011;33747;49.524;8.390;2022-10-31T13:31:09;27.75;;;12.48;;
7338;SDS011;33747;49.524;8.390;2022-10-31T13:33:48;24.60;;;12.15;;
7338;SDS011;33747;49.524;8.390;2022-10-31T13:39:10;22.85;;;12.45;;
7338;SDS011;33747;49.524;8.390;2022-10-31T13:41:59;22.02;;;11.07;;
7338;SDS011;33747;49.524;8.390;2022-10-31T13:44:39;14.15;;;10.25;;
7338;SDS011;33747;49.524;8.390;2022-10-31T13:47:38;25.98;;;12.05;;
7338;SDS011;33747;49.524;8.390;2022-10-31T13:52:45;21.30;;;12.07;;
7338;SDS011;33747;49.524;8.390;2022-10-31T13:58:27;21.40;;;10.90;;
7338;SDS011;33747;49.524;8.390;2022-10-31T14:03:33;28.83;;;13.38;;
7338;SDS011;33747;49.524;8.390;2022-10-31T14:06:00;23.92;;;11.05;;
7338;SDS011;33747;49.524;8.390;2022-10-31T14:08:25;24.75;;;12.05;;
7338;SDS011;33747;49.524;8.390;2022-10-31T14:10:51;27.63;;;10.43;;
7338;SDS011;33747;49.524;8.390;2022-10-31T14:13:20;28.90;;;11.38;;
7338;SDS011;33747;49.524;8.390;2022-10-31T14:15:52;19.40;;;10.57;;
7338;SDS011;33747;49.524;8.390;2022-10-31T14:18:24;26.15;;;9.90;;
7338;SDS011;33747;49.524;8.390;2022-10-31T14:20:53;24.23;;;10.30;;
7338;SDS011;33747;49.524;8.390;2022-10-31T14:28:46;19.75;;;9.93;;
7338;SDS011;33747;49.524;8.390;2022-10-31T14:42:54;24.63;;;9.77;;
7338;SDS011;33747;49.524;8.390;2022-10-31T14:50:59;26.63;;;10.65;;
7338;SDS011;33747;49.524;8.390;2022-10-31T14:53:27;37.08;;;22.88;;
7338;SDS011;33747;49.524;8.390;2022-10-31T14:55:56;31.77;;;16.83;;
7338;SDS011;33747;49.524;8.390;2022-10-31T15:01:02;17.20;;;9.45;;
7338;SDS011;33747;49.524;8.390;2022-10-31T15:03:35;21.75;;;11.15;;
7338;SDS011;33747;49.524;8.390;2022-10-31T15:06:05;19.80;;;10.02;;
7338;SDS011;33747;49.524;8.390;2022-10-31T15:08:40;25.77;;;10.43;;
7338;SDS011;33747;49.524;8.390;2022-10-31T15:11:13;22.20;;;11.20;;
7338;SDS011;33747;49.524;8.390;2022-10-31T15:13:49;25.60;;;11.02;;
7338;SDS011;33747;49.524;8.390;2022-10-31T15:16:20;18.67;;;9.90;;
7338;SDS011;33747;49.524;8.390;2022-10-31T15:19:10;31.00;;;12.82;;
7338;SDS011;33747;49.524;8.390;2022-10-31T15:21:36;30.30;;;13.63;;
7338;SDS011;33747;49.524;8.390;2022-10-31T15:24:10;28.73;;;13.70;;
7338;SDS011;33747;49.524;8.390;2022-10-31T15:26:38;27.58;;;13.77;;
7338;SDS011;33747;49.524;8.390;2022-10-31T15:29:14;27.55;;;14.05;;
7338;SDS011;33747;49.524;8.390;2022-10-31T15:31:57;27.35;;;13.23;;
7338;SDS011;33747;49.524;8.390;2022-10-31T15:34:40;25.48;;;13.13;;
7338;SDS011;33747;49.524;8.390;2022-10-31T15:37:11;37.03;;;13.48;;
7338;SDS011;33747;49.524;8.390;2022-10-31T15:42:19;22.95;;;11.68;;
7338;SDS011;33747;49.524;8.390;2022-10-31T15:45:04;26.17;;;14.10;;
7338;SDS011;33747;49.524;8.390;2022-10-31T15:47:44;22.85;;;12.52;;
7338;SDS011;33747;49.524;8.390;2022-10-31T15:50:18;23.05;;;12.25;;
7338;SDS011;33747;49.524;8.390;2022-10-31T15:52:46;22.48;;;11.02;;
7338;SDS011;33747;49.524;8.390;2022-10-31T15:55:19;17.83;;;11.80;;
7338;SDS011;33747;49.524;8.390;2022-10-31T15:57:47;24.60;;;12.18;;
7338;SDS011;33747;49.524;8.390;2022-10-31T16:00:25;28.73;;;11.85;;
7338;SDS011;33747;49.524;8.390;2022-10-31T16:03:02;26.77;;;11.95;;
7338;SDS011;33747;49.524;8.390;2022-10-31T16:05:38;25.60;;;13.65;;
7338;SDS011;33747;49.524;8.390;2022-10-31T16:10:55;31.27;;;13.23;;
7338;SDS011;33747;49.524;8.390;2022-10-31T16:13:23;31.15;;;14.90;;
7338;SDS011;33747;49.524;8.390;2022-10-31T16:15:53;32.60;;;13.75;;
7338;SDS011;33747;49.524;8.390;2022-10-31T16:18:20;30.63;;;13.13;;
7338;SDS011;33747;49.524;8.390;2022-10-31T16:20:49;29.67;;;12.40;;
7338;SDS011;33747;49.524;8.390;2022-10-31T16:23:17;18.77;;;11.52;;
7338;SDS011;33747;49.524;8.390;2022-10-31T16:25:42;22.70;;;11.68;;
7338;SDS011;33747;49.524;8.390;2022-10-31T16:28:16;20.13;;;11.60;;
7338;SDS011;33747;49.524;8.390;2022-10-31T16:30:47;30.75;;;13.05;;
7338;SDS011;33747;49.524;8.390;2022-10-31T16:33:24;22.25;;;13.05;;
7338;SDS011;33747;49.524;8.390;2022-10-31T16:35:54;25.08;;;12.32;;
7338;SDS011;33747;49.524;8.390;2022-10-31T16:38:21;24.98;;;11.30;;
7338;SDS011;33747;49.524;8.390;2022-10-31T16:40:46;19.42;;;10.98;;
7338;SDS011;33747;49.524;8.390;2022-10-31T16:43:12;28.67;;;12.80;;
7338;SDS011;33747;49.524;8.390;2022-10-31T16:45:43;25.88;;;12.02;;
7338;SDS011;33747;49.524;8.390;2022-10-31T16:48:11;24.13;;;12.98;;
7338;SDS011;33747;49.524;8.390;2022-10-31T16:50:39;37.58;;;14.10;;
7338;SDS011;33747;49.524;8.390;2022-10-31T16:53:05;23.65;;;13.05;;
7338;SDS011;33747;49.524;8.390;2022-10-31T16:55:31;22.45;;;13.18;;
7338;SDS011;33747;49.524;8.390;2022-10-31T16:57:59;31.02;;;12.98;;
7338;SDS011;33747;49.524;8.390;2022-10-31T17:00:25;30.77;;;14.07;;
7338;SDS011;33747;49.524;8.390;2022-10-31T17:02:52;38.17;;;19.77;;
7338;SDS011;33747;49.524;8.390;2022-10-31T17:05:20;36.47;;;23.15;;
7338;SDS011;33747;49.524;8.390;2022-10-31T17:07:46;29.50;;;15.55;;
7338;SDS011;33747;49.524;8.390;2022-10-31T17:10:12;27.10;;;13.38;;
7338;SDS011;33747;49.524;8.390;2022-10-31T17:12:40;30.38;;;13.57;;
7338;SDS011;33747;49.524;8.390;2022-10-31T17:15:14;26.13;;;12.70;;